createdAt,value
2022-09-22T00:01:04.980Z,0.90
2022-09-22T00:03:33.017Z,1.00
2022-09-22T00:06:11.895Z,1.23
2022-09-22T00:08:41.115Z,1.40
2022-09-22T00:11:13.786Z,1.13
2022-09-22T00:13:41.496Z,1.17
2022-09-22T00:16:10.835Z,1.40
2022-09-22T00:18:38.140Z,1.10
2022-09-22T00:21:12.367Z,1.10
2022-09-22T00:23:39.843Z,1.23
2022-09-22T00:26:09.069Z,1.17
2022-09-22T00:28:35.625Z,0.98
2022-09-22T00:31:15.170Z,1.00
2022-09-22T00:33:42.606Z,1.20
2022-09-22T00:36:10.009Z,1.05
2022-09-22T00:38:38.970Z,1.40
2022-09-22T00:41:10.958Z,1.23
2022-09-22T00:43:38.920Z,1.00
2022-09-22T00:46:08.456Z,0.95
2022-09-22T00:48:39.631Z,1.10
2022-09-22T00:51:09.462Z,0.90
2022-09-22T00:53:36.264Z,1.10
2022-09-22T00:56:09.340Z,1.40
2022-09-22T00:58:44.041Z,1.25
2022-09-22T01:01:10.973Z,1.20
2022-09-22T01:03:42.654Z,1.02
2022-09-22T01:06:12.736Z,1.10
2022-09-22T01:08:40.217Z,1.20
2022-09-22T01:11:08.049Z,1.30
2022-09-22T01:14:06.565Z,1.27
2022-09-22T01:16:53.669Z,1.05
2022-09-22T01:19:57.708Z,1.80
2022-09-22T01:22:50.707Z,0.93
2022-09-22T01:26:00.677Z,1.00
2022-09-22T01:28:48.346Z,1.38
2022-09-22T01:31:23.750Z,1.15
2022-09-22T01:34:06.130Z,0.90
2022-09-22T01:36:46.975Z,1.17
2022-09-22T01:39:29.710Z,0.90
2022-09-22T01:41:58.288Z,1.45
2022-09-22T01:44:47.616Z,1.00
2022-09-22T01:47:24.637Z,0.70
2022-09-22T01:49:55.792Z,0.90
2022-09-22T01:52:27.356Z,1.08
2022-09-22T01:55:03.402Z,1.10
2022-09-22T01:57:58.018Z,1.02
2022-09-22T02:00:25.001Z,1.05
2022-09-22T02:03:08.221Z,1.30
2022-09-22T02:05:44.961Z,1.20
2022-09-22T02:08:21.838Z,1.08
2022-09-22T02:10:49.066Z,1.10
2022-09-22T02:13:15.659Z,1.17
2022-09-22T02:16:01.682Z,1.30
2022-09-22T02:18:43.742Z,0.90
2022-09-22T02:21:10.801Z,1.27
2022-09-22T02:23:37.433Z,1.25
2022-09-22T02:26:06.766Z,0.98
2022-09-22T02:28:38.705Z,1.20
2022-09-22T02:31:24.847Z,1.40
2022-09-22T02:33:52.219Z,1.77
2022-09-22T02:36:39.060Z,1.23
2022-09-22T02:39:21.721Z,1.35
2022-09-22T02:42:10.297Z,1.40
2022-09-22T02:44:49.385Z,1.00
2022-09-22T02:47:32.680Z,1.25
2022-09-22T02:50:01.952Z,1.23
2022-09-22T02:52:28.439Z,1.10
2022-09-22T02:54:55.020Z,1.30
2022-09-22T02:57:21.982Z,1.10
2022-09-22T02:59:48.505Z,1.23
2022-09-22T03:02:15.281Z,1.10
2022-09-22T03:04:41.932Z,1.30
2022-09-22T03:07:08.537Z,1.30
2022-09-22T03:09:35.187Z,1.40
2022-09-22T03:12:01.945Z,1.33
2022-09-22T03:14:28.598Z,1.40
2022-09-22T03:16:55.215Z,1.05
2022-09-22T03:19:21.749Z,1.27
2022-09-22T03:21:48.237Z,1.05
2022-09-22T03:24:14.728Z,1.30
2022-09-22T03:26:41.291Z,1.40
2022-09-22T03:29:07.940Z,1.08
2022-09-22T03:31:34.485Z,1.13
2022-09-22T03:34:01.104Z,1.27
2022-09-22T03:36:27.623Z,1.10
2022-09-22T03:38:54.273Z,1.50
2022-09-22T03:41:20.909Z,1.30
2022-09-22T03:43:47.418Z,1.30
2022-09-22T03:46:14.426Z,1.13
2022-09-22T03:48:44.938Z,1.30
2022-09-22T03:51:12.155Z,1.15
2022-09-22T03:53:39.000Z,1.50
2022-09-22T03:56:10.286Z,1.40
2022-09-22T03:58:37.812Z,1.38
2022-09-22T04:01:06.034Z,1.27
2022-09-22T04:03:33.082Z,1.35
2022-09-22T04:06:00.431Z,1.27
2022-09-22T04:08:27.041Z,1.35
2022-09-22T04:10:54.209Z,1.38
2022-09-22T04:13:20.840Z,1.17
2022-09-22T04:15:47.367Z,1.25
2022-09-22T04:18:14.512Z,1.20
2022-09-22T04:20:43.613Z,1.10
2022-09-22T04:23:14.583Z,1.20
2022-09-22T04:25:41.181Z,1.10
2022-09-22T04:28:08.078Z,1.48
2022-09-22T04:30:35.093Z,1.63
2022-09-22T04:33:01.945Z,1.10
2022-09-22T04:35:29.057Z,1.27
2022-09-22T04:37:56.575Z,1.52
2022-09-22T04:40:24.254Z,1.42
2022-09-22T04:42:52.998Z,1.77
2022-09-22T04:45:19.547Z,1.33
2022-09-22T04:47:51.555Z,1.50
2022-09-22T04:50:20.674Z,1.48
2022-09-22T04:52:48.565Z,1.50
2022-09-22T04:55:15.630Z,2.17
2022-09-22T04:57:48.992Z,1.35
2022-09-22T05:00:16.533Z,1.17
2022-09-22T05:02:43.859Z,1.30
2022-09-22T05:05:19.504Z,1.10
2022-09-22T05:07:48.421Z,1.20
2022-09-22T05:10:17.928Z,1.20
2022-09-22T05:12:45.106Z,1.10
2022-09-22T05:15:18.400Z,1.42
2022-09-22T05:17:47.002Z,1.55
2022-09-22T05:20:14.687Z,1.60
2022-09-22T05:22:41.935Z,1.15
2022-09-22T05:25:17.506Z,1.63
2022-09-22T05:27:46.759Z,1.42
2022-09-22T05:30:13.774Z,1.10
2022-09-22T05:32:45.270Z,1.17
2022-09-22T05:35:14.222Z,1.90
2022-09-22T05:37:44.841Z,1.60
2022-09-22T05:40:12.676Z,1.60
2022-09-22T05:42:47.854Z,1.38
2022-09-22T05:45:16.289Z,1.50
2022-09-22T05:47:43.233Z,1.73
2022-09-22T05:50:11.876Z,1.83
2022-09-22T05:52:39.385Z,1.98
2022-09-22T05:55:07.039Z,1.40
2022-09-22T05:57:34.314Z,1.75
2022-09-22T06:00:00.999Z,1.90
2022-09-22T06:02:27.642Z,1.85
2022-09-22T06:04:54.307Z,1.60
2022-09-22T06:07:21.746Z,1.50
2022-09-22T06:09:48.961Z,2.30
2022-09-22T06:12:18.979Z,1.65
2022-09-22T06:14:45.513Z,2.05
2022-09-22T06:17:12.466Z,1.55
2022-09-22T06:19:39.703Z,1.70
2022-09-22T06:22:07.842Z,1.90
2022-09-22T06:24:34.422Z,1.67
2022-09-22T06:27:00.919Z,2.20
2022-09-22T06:29:28.440Z,1.77
2022-09-22T06:31:55.022Z,1.75
2022-09-22T06:34:23.167Z,1.50
2022-09-22T06:36:50.146Z,1.83
2022-09-22T06:39:16.748Z,1.92
2022-09-22T06:41:44.768Z,1.63
2022-09-22T06:44:13.078Z,1.80
2022-09-22T06:46:39.645Z,2.00
2022-09-22T06:49:06.164Z,2.00
2022-09-22T06:51:35.266Z,1.90
2022-09-22T06:54:05.334Z,1.60
2022-09-22T06:56:42.955Z,1.60
2022-09-22T06:59:13.591Z,1.63
2022-09-22T07:01:42.007Z,1.70
2022-09-22T07:04:09.350Z,1.40
2022-09-22T07:06:37.341Z,1.58
2022-09-22T07:09:05.475Z,1.65
2022-09-22T07:11:34.275Z,1.40
2022-09-22T07:14:04.138Z,1.60
2022-09-22T07:16:30.952Z,1.50
2022-09-22T07:19:00.867Z,2.40
2022-09-22T07:21:35.541Z,1.50
2022-09-22T07:24:02.906Z,1.65
2022-09-22T07:26:32.732Z,1.58
2022-09-22T07:29:06.249Z,1.73
2022-09-22T07:31:34.713Z,1.77
2022-09-22T07:34:01.635Z,1.85
2022-09-22T07:36:30.529Z,1.98
2022-09-22T07:39:03.135Z,1.95
2022-09-22T07:41:31.701Z,1.70
2022-09-22T07:44:22.786Z,1.90
2022-09-22T07:46:49.671Z,2.08
2022-09-22T07:49:19.517Z,1.52
2022-09-22T07:51:46.373Z,2.10
2022-09-22T07:54:13.233Z,1.90
2022-09-22T07:56:42.614Z,1.90
2022-09-22T07:59:11.877Z,1.48
2022-09-22T08:01:44.323Z,1.60
2022-09-22T08:04:15.144Z,1.70
2022-09-22T08:06:44.806Z,1.45
2022-09-22T08:09:12.654Z,1.73
2022-09-22T08:11:40.014Z,1.70
2022-09-22T08:14:11.048Z,1.52
2022-09-22T08:16:41.086Z,1.70
2022-09-22T08:19:12.476Z,1.88
2022-09-22T08:21:48.076Z,1.67
2022-09-22T08:24:21.242Z,1.80
2022-09-22T08:26:50.629Z,1.17
2022-09-22T08:29:17.296Z,2.00
2022-09-22T08:31:46.970Z,1.90
2022-09-22T08:34:16.340Z,1.88
2022-09-22T08:36:46.643Z,1.33
2022-09-22T08:39:14.025Z,1.63
2022-09-22T08:42:08.417Z,1.48
2022-09-22T08:45:07.164Z,1.40
2022-09-22T08:48:07.428Z,1.35
2022-09-22T08:51:14.395Z,1.73
2022-09-22T08:53:47.816Z,1.60
2022-09-22T08:56:55.164Z,1.33
2022-09-22T08:59:23.645Z,1.67
2022-09-22T09:02:20.830Z,2.95
2022-09-22T09:05:18.479Z,3.58
2022-09-22T09:08:00.280Z,4.20
2022-09-22T09:10:45.336Z,4.20
2022-09-22T09:13:45.982Z,4.65
2022-09-22T09:16:27.835Z,4.00
2022-09-22T09:19:04.189Z,4.13
2022-09-22T09:21:37.870Z,3.90
2022-09-22T09:27:00.943Z,3.80
2022-09-22T09:29:34.132Z,3.80
2022-09-22T09:32:04.096Z,4.13
2022-09-22T09:34:30.704Z,4.25
2022-09-22T09:37:12.530Z,4.50
2022-09-22T09:39:41.853Z,4.05
2022-09-22T09:42:34.880Z,4.30
2022-09-22T09:45:03.234Z,4.10
2022-09-22T09:47:50.297Z,4.70
2022-09-22T09:50:16.917Z,4.10
2022-09-22T09:52:44.875Z,4.40
2022-09-22T09:55:27.281Z,3.92
2022-09-22T09:58:36.733Z,3.55
2022-09-22T10:01:04.420Z,3.85
2022-09-22T10:03:34.922Z,3.70
2022-09-22T10:06:10.292Z,4.15
2022-09-22T10:08:49.331Z,4.18
2022-09-22T10:11:31.334Z,3.70
2022-09-22T10:13:58.618Z,4.10
2022-09-22T10:16:28.764Z,3.88
2022-09-22T10:18:58.344Z,3.90
2022-09-22T10:21:26.721Z,3.83
2022-09-22T10:23:58.394Z,3.97
2022-09-22T10:26:26.728Z,3.72
2022-09-22T10:29:18.959Z,3.70
2022-09-22T10:32:05.343Z,3.70
2022-09-22T10:34:51.793Z,3.65
2022-09-22T10:37:25.446Z,3.47
2022-09-22T10:39:54.413Z,3.67
2022-09-22T10:42:43.497Z,3.70
2022-09-22T10:45:14.073Z,3.78
2022-09-22T10:48:11.742Z,3.67
2022-09-22T10:50:44.052Z,3.40
2022-09-22T10:53:20.772Z,3.28
2022-09-22T10:56:04.125Z,3.20
2022-09-22T10:58:49.099Z,3.30
2022-09-22T11:01:33.688Z,3.08
2022-09-22T11:04:12.330Z,3.53
2022-09-22T11:07:02.574Z,3.20
2022-09-22T11:10:00.224Z,3.72
2022-09-22T11:12:35.747Z,3.65
2022-09-22T11:15:11.308Z,3.33
2022-09-22T11:17:46.790Z,3.13
2022-09-22T11:20:25.184Z,3.50
2022-09-22T11:23:16.964Z,3.35
2022-09-22T11:25:50.639Z,3.80
2022-09-22T11:28:39.596Z,3.40
2022-09-22T11:31:06.484Z,3.45
2022-09-22T11:33:41.832Z,3.78
2022-09-22T11:36:42.212Z,3.15
2022-09-22T11:39:47.055Z,3.35
2022-09-22T11:42:25.833Z,3.70
2022-09-22T11:45:14.283Z,3.60
2022-09-22T11:47:49.765Z,3.25
2022-09-22T11:50:25.218Z,3.20
2022-09-22T11:53:10.617Z,3.30
2022-09-22T11:56:09.193Z,3.28
2022-09-22T11:58:41.216Z,3.65
2022-09-22T12:01:22.018Z,3.20
2022-09-22T12:04:00.656Z,3.60
2022-09-22T12:06:31.895Z,3.38
2022-09-22T12:09:04.490Z,3.05
2022-09-22T12:11:35.860Z,3.50
2022-09-22T12:14:03.705Z,3.90
2022-09-22T12:16:41.934Z,3.42
2022-09-22T12:19:25.347Z,3.20
2022-09-22T12:22:19.482Z,3.45
2022-09-22T12:24:47.161Z,3.60
2022-09-22T12:27:27.780Z,3.40
2022-09-22T12:29:57.967Z,3.50
2022-09-22T12:32:33.030Z,3.33
2022-09-22T12:35:00.617Z,3.30
2022-09-22T12:37:34.773Z,3.25
2022-09-22T12:40:23.489Z,3.10
2022-09-22T12:42:53.251Z,3.53
2022-09-22T12:45:40.898Z,3.75
2022-09-22T12:48:14.000Z,3.40
2022-09-22T12:50:43.551Z,3.70
2022-09-22T12:53:21.795Z,3.25
2022-09-22T12:55:55.693Z,3.40
2022-09-22T12:58:22.493Z,3.70
2022-09-22T13:00:57.239Z,3.00
2022-09-22T13:03:26.998Z,3.50
2022-09-22T13:06:01.043Z,3.40
2022-09-22T13:08:30.388Z,3.40
2022-09-22T13:11:03.951Z,3.55
2022-09-22T13:13:39.377Z,3.53
2022-09-22T13:16:14.990Z,3.40
2022-09-22T13:18:51.020Z,3.30
2022-09-22T13:21:18.938Z,3.75
2022-09-22T13:23:51.652Z,3.35
2022-09-22T13:26:36.511Z,3.40
2022-09-22T13:29:17.921Z,3.30
2022-09-22T13:31:52.973Z,3.95
2022-09-22T13:34:31.191Z,3.40
2022-09-22T13:37:19.655Z,3.72
2022-09-22T13:39:49.960Z,3.08
2022-09-22T13:42:32.681Z,3.67
2022-09-22T13:45:27.493Z,3.00
2022-09-22T13:48:17.104Z,3.33
2022-09-22T13:50:56.156Z,3.30
2022-09-22T13:53:23.129Z,3.83
2022-09-22T13:55:51.901Z,3.67
2022-09-22T13:58:28.017Z,3.50
2022-09-22T14:01:15.570Z,3.65
2022-09-22T14:03:43.170Z,3.70
2022-09-22T14:06:14.109Z,3.33
2022-09-22T14:08:42.691Z,3.80
2022-09-22T14:11:18.321Z,3.53
2022-09-22T14:13:56.675Z,3.47
2022-09-22T14:16:29.026Z,3.50
2022-09-22T14:19:04.654Z,3.38
2022-09-22T14:21:40.223Z,3.17
2022-09-22T14:24:07.142Z,3.20
2022-09-22T14:26:38.880Z,3.15
2022-09-22T14:29:15.489Z,3.10
2022-09-22T14:31:46.635Z,3.10
2022-09-22T14:34:23.229Z,3.40
2022-09-22T14:36:52.034Z,3.35
2022-09-22T14:39:31.289Z,2.95
2022-09-22T14:42:06.219Z,3.10
2022-09-22T14:44:44.010Z,3.17
2022-09-22T14:47:26.114Z,3.33
2022-09-22T14:50:07.977Z,3.30
2022-09-22T14:52:39.474Z,3.05
2022-09-22T14:56:47.952Z,3.30
2022-09-22T14:59:36.645Z,3.35
2022-09-22T15:02:32.763Z,3.13
2022-09-22T15:05:13.275Z,3.10
2022-09-22T15:07:53.352Z,3.22
2022-09-22T15:11:05.038Z,3.38
2022-09-22T15:13:39.745Z,3.45
2022-09-22T15:16:37.404Z,3.78
2022-09-22T15:19:05.116Z,3.10
2022-09-22T15:21:37.550Z,3.35
2022-09-22T15:24:26.792Z,3.53
2022-09-22T15:26:57.037Z,3.20
2022-09-22T15:32:16.980Z,3.40
2022-09-22T15:34:44.862Z,3.22
2022-09-22T15:37:23.979Z,3.10
2022-09-22T15:39:51.533Z,3.50
2022-09-22T15:42:22.269Z,3.58
2022-09-22T15:44:52.338Z,3.53
2022-09-22T15:47:19.636Z,3.17
2022-09-22T15:49:55.310Z,2.58
2022-09-22T15:52:32.824Z,3.10
2022-09-22T15:55:17.740Z,3.45
2022-09-22T15:57:47.763Z,3.83
2022-09-22T16:00:19.525Z,4.00
2022-09-22T16:02:49.992Z,3.70
2022-09-22T16:05:21.793Z,3.55
2022-09-22T16:07:51.871Z,3.42
2022-09-22T16:10:27.299Z,3.30
2022-09-22T16:12:56.196Z,3.47
2022-09-22T16:15:23.202Z,3.60
2022-09-22T16:17:49.828Z,3.15
2022-09-22T16:20:17.353Z,3.03
2022-09-22T16:22:45.549Z,3.05
2022-09-22T16:25:12.971Z,3.00
2022-09-22T16:27:43.833Z,3.05
2022-09-22T16:30:13.501Z,3.40
2022-09-22T16:32:43.553Z,3.60
2022-09-22T16:35:13.360Z,3.20
2022-09-22T16:37:43.040Z,3.20
2022-09-22T16:40:13.092Z,2.95
2022-09-22T16:42:42.670Z,3.00
2022-09-22T16:45:11.867Z,3.45
2022-09-22T16:47:38.396Z,3.30
2022-09-22T16:50:05.384Z,3.22
2022-09-22T16:52:32.284Z,3.20
2022-09-22T16:55:02.412Z,3.33
2022-09-22T16:57:28.959Z,3.15
2022-09-22T16:59:56.990Z,3.10
2022-09-22T17:02:24.073Z,3.00
2022-09-22T17:04:50.644Z,3.00
2022-09-22T17:07:17.587Z,3.20
2022-09-22T17:09:44.109Z,3.00
2022-09-22T17:12:10.985Z,3.20
2022-09-22T17:14:37.544Z,3.30
2022-09-22T17:17:07.431Z,2.97
2022-09-22T17:19:33.996Z,3.15
2022-09-22T17:22:00.622Z,3.10
2022-09-22T17:24:27.699Z,3.20
2022-09-22T17:26:56.684Z,3.72
2022-09-22T17:29:32.655Z,3.85
2022-09-22T17:32:04.595Z,2.88
2022-09-22T17:34:33.212Z,3.33
2022-09-22T17:37:01.005Z,2.95
2022-09-22T17:39:28.962Z,2.80
2022-09-22T17:41:56.014Z,3.35
2022-09-22T17:44:23.624Z,2.90
2022-09-22T17:47:14.282Z,2.72
2022-09-22T17:49:59.636Z,3.42
2022-09-22T17:52:29.211Z,3.35
2022-09-22T17:55:12.687Z,2.88
2022-09-22T17:57:45.128Z,3.70
2022-09-22T18:00:19.507Z,2.85
2022-09-22T18:02:46.763Z,4.43
2022-09-22T18:05:16.342Z,2.15
2022-09-22T18:07:47.174Z,2.20
2022-09-22T18:10:17.015Z,2.33
2022-09-22T18:12:46.759Z,3.03
2022-09-22T18:15:17.792Z,2.33
2022-09-22T18:17:44.546Z,2.35
2022-09-22T18:20:20.762Z,1.70
2022-09-22T18:22:47.931Z,1.50
2022-09-22T18:25:19.505Z,2.30
2022-09-22T18:27:48.549Z,1.33
2022-09-22T18:30:16.972Z,0.90
2022-09-22T18:32:47.508Z,1.13
2022-09-22T18:35:14.311Z,0.95
2022-09-22T18:37:41.236Z,1.20
2022-09-22T18:40:09.487Z,1.20
2022-09-22T18:42:36.736Z,1.10
2022-09-22T18:48:33.351Z,1.45
2022-09-22T18:51:06.668Z,1.08
2022-09-22T18:53:33.237Z,1.30
2022-09-22T18:56:16.914Z,1.10
2022-09-22T18:58:46.732Z,1.45
2022-09-22T19:01:18.495Z,1.00
2022-09-22T19:03:48.768Z,1.70
2022-09-22T19:06:16.154Z,1.10
2022-09-22T19:08:46.335Z,1.33
2022-09-22T19:11:17.656Z,1.35
2022-09-22T19:13:48.197Z,1.20
2022-09-22T19:16:18.094Z,1.30
2022-09-22T19:18:50.150Z,1.73
2022-09-22T19:21:16.867Z,1.30
2022-09-22T19:23:45.341Z,0.88
2022-09-22T19:26:15.049Z,1.48
2022-09-22T19:28:41.755Z,1.23
2022-09-22T19:31:08.341Z,1.20
2022-09-22T19:33:35.010Z,1.00
2022-09-22T19:36:01.903Z,0.98
2022-09-22T19:38:28.420Z,1.30
2022-09-22T19:40:56.310Z,1.30
2022-09-22T19:43:24.515Z,1.05
2022-09-22T19:45:52.274Z,1.40
2022-09-22T19:48:19.536Z,1.40
2022-09-22T19:50:48.613Z,0.98
2022-09-22T19:53:15.222Z,1.20
2022-09-22T19:55:41.967Z,1.33
2022-09-22T19:58:08.477Z,1.23
2022-09-22T20:00:36.247Z,1.63
2022-09-22T20:03:21.121Z,0.98
2022-09-22T20:05:48.794Z,1.40
2022-09-22T20:08:21.531Z,1.27
2022-09-22T20:11:01.741Z,1.10
2022-09-22T20:13:56.289Z,1.13
2022-09-22T20:16:22.837Z,1.45
2022-09-22T20:18:49.348Z,1.45
2022-09-22T20:21:16.101Z,0.90
2022-09-22T20:23:49.911Z,1.10
2022-09-22T20:26:16.425Z,1.13
2022-09-22T20:28:45.117Z,1.27
2022-09-22T20:31:12.445Z,1.27
2022-09-22T20:33:40.794Z,1.45
2022-09-22T20:36:11.208Z,1.40
2022-09-22T20:38:38.423Z,1.27
2022-09-22T20:41:05.045Z,1.30
2022-09-22T20:43:31.595Z,1.13
2022-09-22T20:46:03.668Z,1.33
2022-09-22T20:48:31.413Z,1.58
2022-09-22T20:50:59.071Z,1.30
2022-09-22T20:53:26.165Z,1.27
2022-09-22T20:56:10.321Z,1.30
2022-09-22T20:58:42.895Z,0.80
2022-09-22T21:01:12.223Z,1.40
2022-09-22T21:03:39.067Z,1.00
2022-09-22T21:06:08.008Z,1.60
2022-09-22T21:08:57.293Z,1.45
2022-09-22T21:11:24.676Z,1.13
2022-09-22T21:13:53.212Z,1.23
2022-09-22T21:16:19.895Z,1.27
2022-09-22T21:18:51.808Z,1.27
2022-09-22T21:21:20.556Z,1.20
2022-09-22T21:23:50.418Z,1.58
2022-09-22T21:26:20.774Z,1.80
2022-09-22T21:28:51.895Z,1.27
2022-09-22T21:31:23.024Z,1.20
2022-09-22T21:33:49.794Z,1.20
2022-09-22T21:36:19.659Z,1.33
2022-09-22T21:38:50.334Z,1.10
2022-09-22T21:41:21.990Z,1.80
2022-09-22T21:43:51.489Z,1.05
2022-09-22T21:46:23.355Z,1.50
2022-09-22T21:48:50.005Z,1.30
2022-09-22T21:51:20.202Z,1.42
2022-09-22T21:53:52.215Z,1.25
2022-09-22T21:56:25.239Z,1.25
2022-09-22T21:58:54.084Z,1.60
2022-09-22T22:01:26.205Z,1.40
2022-09-22T22:03:54.997Z,1.27
2022-09-22T22:06:34.229Z,1.45
2022-09-22T22:09:19.814Z,1.38
2022-09-22T22:11:55.498Z,1.63
2022-09-22T22:14:23.926Z,1.48
2022-09-22T22:16:53.801Z,1.63
2022-09-22T22:19:25.931Z,1.30
2022-09-22T22:21:53.890Z,1.35
2022-09-22T22:24:27.269Z,1.60
2022-09-22T22:26:57.137Z,1.40
2022-09-22T22:29:26.703Z,1.17
2022-09-22T22:31:53.529Z,1.70
2022-09-22T22:34:27.569Z,1.30
2022-09-22T22:36:55.236Z,1.67
2022-09-22T22:39:22.029Z,1.48
2022-09-22T22:41:55.272Z,1.42
2022-09-22T22:44:24.664Z,2.38
2022-09-22T22:46:54.017Z,1.42
2022-09-22T22:49:22.412Z,1.52
2022-09-22T22:51:52.135Z,1.27
2022-09-22T22:54:18.637Z,1.45
2022-09-22T22:56:50.203Z,1.45
2022-09-22T22:59:18.149Z,1.40
2022-09-22T23:01:44.757Z,1.65
2022-09-22T23:04:12.143Z,1.60
2022-09-22T23:06:41.759Z,1.50
2022-09-22T23:09:11.794Z,1.33
2022-09-22T23:11:39.978Z,1.40
2022-09-22T23:14:08.565Z,2.20
2022-09-22T23:16:38.235Z,1.77
2022-09-22T23:19:08.462Z,1.60
2022-09-22T23:21:36.208Z,1.77
2022-09-22T23:24:03.953Z,1.98
2022-09-22T23:26:32.044Z,1.55
2022-09-22T23:28:59.002Z,1.50
2022-09-22T23:31:26.128Z,1.60
2022-09-22T23:33:57.584Z,1.67
2022-09-22T23:36:27.919Z,1.58
2022-09-22T23:39:04.184Z,1.33
2022-09-22T23:41:35.769Z,1.13
2022-09-22T23:44:03.657Z,1.40
2022-09-22T23:46:30.682Z,2.10
2022-09-22T23:48:57.811Z,1.23
2022-09-22T23:51:27.967Z,1.33
2022-09-22T23:53:58.075Z,1.52
2022-09-22T23:56:27.421Z,1.77
2022-09-22T23:58:56.463Z,2.00
